createdAt,value
2019-05-18T00:01:06.331Z,2.23
2019-05-18T00:03:38.916Z,2.30
2019-05-18T00:06:11.950Z,1.70
2019-05-18T00:08:44.692Z,2.10
2019-05-18T00:11:17.093Z,1.97
2019-05-18T00:13:49.832Z,1.90
2019-05-18T00:16:22.221Z,2.70
2019-05-18T00:18:54.607Z,1.90
2019-05-18T00:21:26.894Z,1.77
2019-05-18T00:23:59.636Z,2.10
2019-05-18T00:26:31.963Z,2.13
2019-05-18T00:29:04.385Z,2.50
2019-05-18T00:31:37.030Z,2.80
2019-05-18T00:34:09.506Z,2.23
2019-05-18T00:36:42.556Z,2.43
2019-05-18T00:39:15.020Z,2.07
2019-05-18T00:41:47.475Z,2.60
2019-05-18T00:44:19.951Z,2.30
2019-05-18T00:46:52.079Z,2.40
2019-05-18T00:49:24.221Z,2.47
2019-05-18T00:51:56.880Z,2.40
2019-05-18T00:54:29.806Z,2.50
2019-05-18T00:57:02.059Z,2.60
2019-05-18T00:59:35.188Z,2.10
2019-05-18T01:02:07.418Z,2.53
2019-05-18T01:04:40.006Z,1.93
2019-05-18T01:07:13.070Z,2.83
2019-05-18T01:09:45.203Z,2.93
2019-05-18T01:12:17.456Z,2.60
2019-05-18T01:14:49.612Z,2.27
2019-05-18T01:17:21.945Z,2.43
2019-05-18T01:19:54.089Z,2.30
2019-05-18T01:22:26.799Z,2.70
2019-05-18T01:24:59.168Z,2.83
2019-05-18T01:27:31.533Z,2.77
2019-05-18T01:30:03.929Z,3.20
2019-05-18T01:32:36.610Z,2.80
2019-05-18T01:35:09.403Z,2.97
2019-05-18T01:37:41.636Z,2.83
2019-05-18T01:40:14.723Z,3.00
2019-05-18T01:42:47.392Z,2.77
2019-05-18T01:45:20.152Z,2.90
2019-05-18T01:47:52.763Z,2.67
2019-05-18T01:50:25.901Z,2.43
2019-05-18T01:52:58.595Z,2.90
2019-05-18T01:55:31.603Z,3.10
2019-05-18T01:58:03.692Z,2.77
2019-05-18T02:00:36.740Z,2.83
2019-05-18T02:03:08.888Z,2.77
2019-05-18T02:05:41.036Z,3.07
2019-05-18T02:08:13.629Z,3.20
2019-05-18T02:10:45.756Z,3.33
2019-05-18T02:13:17.884Z,2.97
2019-05-18T02:15:50.116Z,3.10
2019-05-18T02:18:28.973Z,3.03
2019-05-18T02:20:56.746Z,3.00
2019-05-18T02:23:29.230Z,2.63
2019-05-18T02:26:01.358Z,2.57
2019-05-18T02:28:33.487Z,2.40
2019-05-18T02:31:06.149Z,2.50
2019-05-18T02:33:38.277Z,2.43
2019-05-18T02:36:10.872Z,2.40
2019-05-18T02:38:43.321Z,2.47
2019-05-18T02:41:15.477Z,3.10
2019-05-18T02:43:48.053Z,2.70
2019-05-18T02:46:20.221Z,2.97
2019-05-18T02:48:52.663Z,2.93
2019-05-18T02:51:25.345Z,2.70
2019-05-18T02:53:57.571Z,3.00
2019-05-18T02:56:30.147Z,2.60
2019-05-18T02:59:02.273Z,3.60
2019-05-18T03:01:34.395Z,3.47
2019-05-18T03:04:06.723Z,2.87
2019-05-18T03:06:38.947Z,3.37
2019-05-18T03:09:11.618Z,2.87
2019-05-18T03:11:43.837Z,3.00
2019-05-18T03:14:15.956Z,3.60
2019-05-18T03:16:48.972Z,3.20
2019-05-18T03:19:21.198Z,2.80
2019-05-18T03:21:53.775Z,3.73
2019-05-18T03:24:26.291Z,2.80
2019-05-18T03:26:58.399Z,4.00
2019-05-18T03:29:30.520Z,4.33
2019-05-18T03:32:02.669Z,4.27
2019-05-18T03:34:35.249Z,3.90
2019-05-18T03:37:07.495Z,3.40
2019-05-18T03:39:40.116Z,3.20
2019-05-18T03:42:12.576Z,2.97
2019-05-18T03:44:44.798Z,2.80
2019-05-18T03:47:16.931Z,3.13
2019-05-18T03:49:50.100Z,3.30
2019-05-18T03:52:22.247Z,3.30
2019-05-18T03:54:54.460Z,3.80
2019-05-18T03:57:27.037Z,3.20
2019-05-18T03:59:59.599Z,3.87
2019-05-18T04:02:32.063Z,4.40
2019-05-18T04:05:04.745Z,3.40
2019-05-18T04:07:36.972Z,3.57
2019-05-18T04:10:09.805Z,3.67
2019-05-18T04:12:42.288Z,3.40
2019-05-18T04:15:14.838Z,3.10
2019-05-18T04:17:47.035Z,2.40
2019-05-18T04:20:19.907Z,2.70
2019-05-18T04:22:52.604Z,2.87
2019-05-18T04:25:24.863Z,3.70
2019-05-18T04:27:57.129Z,2.80
2019-05-18T04:30:29.288Z,4.30
2019-05-18T04:33:01.579Z,4.50
2019-05-18T04:35:33.710Z,4.63
2019-05-18T04:38:05.830Z,5.00
2019-05-18T04:40:37.968Z,4.57
2019-05-18T04:43:10.644Z,4.90
2019-05-18T04:45:43.243Z,5.13
2019-05-18T04:48:15.378Z,5.07
2019-05-18T04:50:48.016Z,4.50
2019-05-18T04:53:20.583Z,5.13
2019-05-18T04:55:52.710Z,4.53
2019-05-18T04:58:25.741Z,5.30
2019-05-18T05:00:58.374Z,6.23
2019-05-18T05:03:30.841Z,6.10
2019-05-18T05:06:03.312Z,5.07
2019-05-18T05:08:35.794Z,5.13
2019-05-18T05:11:07.925Z,5.63
2019-05-18T05:13:40.177Z,6.50
2019-05-18T05:16:12.536Z,5.80
2019-05-18T05:18:45.161Z,4.67
2019-05-18T05:21:17.775Z,4.93
2019-05-18T05:23:50.524Z,4.10
2019-05-18T05:26:22.878Z,4.37
2019-05-18T05:28:55.260Z,4.73
2019-05-18T05:31:27.916Z,5.27
2019-05-18T05:34:00.221Z,5.67
2019-05-18T05:36:32.501Z,5.47
2019-05-18T05:39:06.535Z,4.20
2019-05-18T05:41:38.921Z,5.37
2019-05-18T05:44:12.258Z,5.20
2019-05-18T05:46:45.324Z,4.77
2019-05-18T05:49:17.614Z,5.90
2019-05-18T05:51:50.357Z,5.37
2019-05-18T05:54:23.102Z,5.53
2019-05-18T05:56:55.831Z,5.47
2019-05-18T05:59:28.456Z,5.23
2019-05-18T06:02:00.714Z,5.20
2019-05-18T06:04:33.330Z,5.23
2019-05-18T06:07:06.282Z,5.33
2019-05-18T06:09:38.574Z,5.03
2019-05-18T06:12:10.855Z,4.90
2019-05-18T06:14:43.496Z,4.90
2019-05-18T06:17:15.771Z,5.40
2019-05-18T06:19:48.056Z,5.20
2019-05-18T06:22:20.352Z,4.73
2019-05-18T06:24:53.096Z,4.80
2019-05-18T06:27:25.386Z,4.93
2019-05-18T06:29:58.467Z,4.77
2019-05-18T06:32:30.742Z,4.60
2019-05-18T06:35:03.809Z,4.97
2019-05-18T06:37:36.094Z,4.30
2019-05-18T06:40:09.900Z,4.57
2019-05-18T06:42:42.636Z,4.33
2019-05-18T06:45:16.076Z,4.37
2019-05-18T06:47:48.694Z,4.83
2019-05-18T06:50:31.323Z,4.87
2019-05-18T06:53:07.090Z,4.30
2019-05-18T06:55:41.382Z,4.67
2019-05-18T06:58:15.811Z,4.57
2019-05-18T07:00:48.095Z,4.43
2019-05-18T07:03:20.877Z,4.47
2019-05-18T07:05:53.635Z,3.93
2019-05-18T07:08:26.341Z,3.70
2019-05-18T07:10:58.635Z,4.00
2019-05-18T07:13:34.239Z,4.00
2019-05-18T07:16:06.980Z,3.90
2019-05-18T07:18:40.055Z,3.97
2019-05-18T07:21:21.752Z,4.20
2019-05-18T07:23:48.051Z,3.57
2019-05-18T07:26:20.503Z,3.67
2019-05-18T07:28:52.914Z,4.13
2019-05-18T07:31:25.632Z,3.80
2019-05-18T07:33:57.934Z,3.80
2019-05-18T07:36:30.657Z,4.00
2019-05-18T07:39:03.033Z,3.77
2019-05-18T07:41:46.249Z,4.10
2019-05-18T07:44:10.028Z,4.27
2019-05-18T07:46:42.653Z,4.40
2019-05-18T07:49:15.502Z,4.33
2019-05-18T07:51:47.807Z,4.07
2019-05-18T07:54:20.539Z,3.60
2019-05-18T07:56:53.285Z,3.97
2019-05-18T07:59:25.680Z,3.60
2019-05-18T08:01:58.421Z,4.10
2019-05-18T08:04:31.167Z,3.70
2019-05-18T08:07:03.798Z,4.30
2019-05-18T08:09:36.088Z,4.10
2019-05-18T08:12:08.387Z,4.13
2019-05-18T08:14:40.680Z,3.87
2019-05-18T08:17:12.979Z,3.53
2019-05-18T08:19:46.055Z,3.50
2019-05-18T08:22:18.815Z,3.30
2019-05-18T08:24:51.107Z,4.53
2019-05-18T08:27:24.631Z,3.83
2019-05-18T08:29:56.966Z,4.30
2019-05-18T08:32:29.284Z,3.77
2019-05-18T08:35:01.998Z,3.17
2019-05-18T08:37:35.214Z,4.40
2019-05-18T08:40:08.668Z,4.37
2019-05-18T08:42:41.170Z,3.93
2019-05-18T08:45:14.536Z,4.03
2019-05-18T08:47:47.168Z,3.30
2019-05-18T08:50:20.962Z,3.70
2019-05-18T08:52:53.257Z,4.30
2019-05-18T08:55:26.318Z,3.37
2019-05-18T08:57:59.072Z,2.87
2019-05-18T09:00:31.559Z,3.67
2019-05-18T09:03:04.192Z,3.17
2019-05-18T09:05:36.476Z,3.60
2019-05-18T09:08:10.000Z,3.67
2019-05-18T09:10:42.733Z,3.30
2019-05-18T09:13:15.581Z,3.40
2019-05-18T09:15:48.598Z,3.40
2019-05-18T09:18:20.901Z,3.20
2019-05-18T09:20:54.092Z,2.97
2019-05-18T09:23:26.480Z,3.20
2019-05-18T09:25:59.779Z,2.67
2019-05-18T09:28:32.074Z,2.50
2019-05-18T09:31:04.834Z,2.50
2019-05-18T09:33:37.908Z,2.60
2019-05-18T09:36:10.756Z,2.30
2019-05-18T09:38:43.048Z,2.13
2019-05-18T09:41:15.338Z,2.53
2019-05-18T09:43:47.638Z,2.60
2019-05-18T09:46:20.020Z,2.80
2019-05-18T09:48:52.978Z,2.50
2019-05-18T09:51:25.271Z,2.63
2019-05-18T09:53:57.603Z,2.50
2019-05-18T09:56:30.346Z,2.87
2019-05-18T09:59:03.096Z,2.80
2019-05-18T10:01:35.381Z,2.67
2019-05-18T10:04:07.985Z,2.10
2019-05-18T10:06:40.414Z,2.60
2019-05-18T10:09:13.523Z,2.80
2019-05-18T10:11:45.960Z,2.53
2019-05-18T10:14:18.568Z,2.50
2019-05-18T10:16:50.855Z,2.20
2019-05-18T10:19:23.284Z,1.97
2019-05-18T10:21:56.025Z,2.03
2019-05-18T10:24:28.459Z,2.57
2019-05-18T10:27:01.203Z,2.10
2019-05-18T10:29:33.938Z,2.43
2019-05-18T10:32:06.331Z,2.17
2019-05-18T10:34:38.636Z,1.73
2019-05-18T10:37:11.807Z,2.00
2019-05-18T10:39:44.099Z,1.83
2019-05-18T10:42:16.836Z,2.10
2019-05-18T10:44:49.230Z,1.93
2019-05-18T10:47:23.345Z,1.60
2019-05-18T10:49:55.639Z,1.90
2019-05-18T10:52:27.930Z,1.83
2019-05-18T10:55:01.503Z,1.93
2019-05-18T10:57:33.814Z,2.37
2019-05-18T11:00:06.989Z,1.70
2019-05-18T11:02:39.483Z,1.90
2019-05-18T11:05:12.374Z,2.17
2019-05-18T11:07:44.691Z,1.90
2019-05-18T11:10:17.547Z,2.30
2019-05-18T11:12:49.919Z,1.80
2019-05-18T11:15:22.991Z,2.00
2019-05-18T11:17:56.045Z,1.80
2019-05-18T11:20:28.982Z,1.73
2019-05-18T11:23:01.731Z,1.60
2019-05-18T11:25:34.066Z,1.63
2019-05-18T11:28:07.132Z,1.30
2019-05-18T11:30:40.311Z,1.60
2019-05-18T11:33:12.557Z,1.87
2019-05-18T11:35:45.755Z,1.80
2019-05-18T11:38:18.031Z,1.73
2019-05-18T11:40:50.532Z,1.80
2019-05-18T11:43:23.724Z,1.63
2019-05-18T11:45:56.444Z,1.80
2019-05-18T11:48:29.447Z,1.70
2019-05-18T11:51:01.675Z,1.77
2019-05-18T11:53:33.958Z,1.50
2019-05-18T11:56:06.927Z,1.80
2019-05-18T11:58:39.542Z,1.80
2019-05-18T12:01:12.937Z,1.57
2019-05-18T12:03:46.702Z,1.70
2019-05-18T12:06:19.442Z,2.00
2019-05-18T12:08:51.728Z,1.53
2019-05-18T12:11:24.016Z,1.67
2019-05-18T12:13:56.665Z,2.00
2019-05-18T12:16:28.943Z,1.83
2019-05-18T12:19:01.242Z,1.30
2019-05-18T12:21:33.988Z,1.42
2019-05-18T12:24:14.642Z,1.40
2019-05-18T12:26:40.784Z,1.80
2019-05-18T12:29:13.074Z,1.87
2019-05-18T12:31:45.814Z,1.90
2019-05-18T12:34:18.430Z,1.73
2019-05-18T12:36:51.067Z,1.80
2019-05-18T12:39:23.672Z,1.80
2019-05-18T12:41:56.985Z,2.03
2019-05-18T12:44:29.265Z,1.70
2019-05-18T12:47:02.363Z,2.10
2019-05-18T12:49:35.441Z,1.90
2019-05-18T12:52:08.265Z,1.90
2019-05-18T12:54:46.478Z,1.97
2019-05-18T12:57:15.347Z,2.10
2019-05-18T12:59:48.184Z,1.93
2019-05-18T13:02:21.361Z,1.80
2019-05-18T13:04:53.750Z,1.83
2019-05-18T13:07:26.577Z,1.90
2019-05-18T13:09:58.869Z,2.07
2019-05-18T13:12:31.249Z,2.40
2019-05-18T13:15:04.148Z,2.20
2019-05-18T13:17:36.410Z,1.90
2019-05-18T13:20:10.859Z,2.13
2019-05-18T13:22:43.496Z,2.20
2019-05-18T13:25:16.432Z,2.03
2019-05-18T13:27:49.218Z,2.10
2019-05-18T13:30:22.417Z,2.13
2019-05-18T13:32:54.808Z,1.70
2019-05-18T13:35:27.429Z,1.67
2019-05-18T13:38:00.201Z,2.23
2019-05-18T13:40:33.077Z,1.70
2019-05-18T13:43:05.847Z,1.97
2019-05-18T13:45:38.140Z,1.70
2019-05-18T13:48:10.762Z,1.70
2019-05-18T13:50:44.866Z,2.10
2019-05-18T13:53:18.213Z,2.10
2019-05-18T13:55:50.496Z,1.93
2019-05-18T13:58:23.115Z,2.10
2019-05-18T14:00:55.731Z,1.70
2019-05-18T14:03:30.077Z,1.60
2019-05-18T14:06:02.353Z,1.93
2019-05-18T14:08:35.783Z,2.10
2019-05-18T14:11:09.052Z,2.20
2019-05-18T14:13:41.793Z,1.90
2019-05-18T14:16:14.734Z,2.17
2019-05-18T14:18:47.027Z,1.93
2019-05-18T14:21:19.303Z,2.00
2019-05-18T14:23:52.478Z,2.10
2019-05-18T14:26:24.768Z,2.10
2019-05-18T14:28:57.835Z,1.80
2019-05-18T14:31:30.675Z,1.70
2019-05-18T14:34:02.970Z,2.17
2019-05-18T14:36:36.146Z,1.80
2019-05-18T14:39:09.220Z,1.60
2019-05-18T14:41:42.602Z,1.60
2019-05-18T14:44:15.451Z,1.50
2019-05-18T14:46:48.150Z,1.40
2019-05-18T14:49:20.531Z,1.20
2019-05-18T14:51:52.806Z,1.20
2019-05-18T14:54:25.766Z,1.50
2019-05-18T14:56:58.206Z,1.70
2019-05-18T14:59:30.522Z,1.37
2019-05-18T15:02:03.064Z,1.50
2019-05-18T15:04:35.988Z,1.60
2019-05-18T15:07:09.220Z,1.43
2019-05-18T15:09:41.962Z,1.37
2019-05-18T15:12:14.216Z,1.20
2019-05-18T15:14:46.509Z,1.40
2019-05-18T15:17:18.797Z,1.27
2019-05-18T15:19:51.539Z,1.30
2019-05-18T15:22:24.736Z,1.30
2019-05-18T15:24:57.163Z,1.30
2019-05-18T15:27:30.512Z,1.40
2019-05-18T15:30:03.002Z,1.33
2019-05-18T15:32:35.802Z,1.40
2019-05-18T15:35:10.131Z,1.30
2019-05-18T15:37:43.683Z,1.20
2019-05-18T15:40:16.843Z,1.20
2019-05-18T15:42:49.701Z,1.20
2019-05-18T15:45:24.717Z,1.40
2019-05-18T15:47:56.786Z,1.40
2019-05-18T15:50:29.283Z,1.00
2019-05-18T15:53:01.568Z,1.20
2019-05-18T15:55:34.299Z,1.07
2019-05-18T15:58:06.922Z,1.20
2019-05-18T16:00:39.668Z,1.40
2019-05-18T16:03:12.965Z,1.50
2019-05-18T16:05:46.146Z,1.57
2019-05-18T16:08:18.879Z,1.20
2019-05-18T16:10:51.621Z,1.50
2019-05-18T16:13:24.354Z,1.37
2019-05-18T16:15:57.326Z,1.50
2019-05-18T16:18:29.611Z,1.50
2019-05-18T16:21:02.819Z,1.30
2019-05-18T16:23:35.107Z,1.10
2019-05-18T16:26:20.713Z,1.30
2019-05-18T16:28:42.747Z,1.30
2019-05-18T16:31:15.416Z,1.30
2019-05-18T16:33:48.156Z,1.30
2019-05-18T16:36:20.449Z,1.43
2019-05-18T16:38:52.736Z,1.37
2019-05-18T16:41:25.464Z,1.40
2019-05-18T16:43:58.201Z,1.33
2019-05-18T16:46:30.500Z,1.80
2019-05-18T16:49:02.794Z,1.83
2019-05-18T16:51:35.063Z,1.50
2019-05-18T16:54:08.032Z,1.27
2019-05-18T16:56:40.660Z,1.63
2019-05-18T16:59:13.409Z,1.80
2019-05-18T17:01:46.804Z,1.70
2019-05-18T17:04:19.998Z,1.50
2019-05-18T17:06:52.614Z,1.50
2019-05-18T17:09:26.082Z,1.57
2019-05-18T17:11:58.443Z,1.60
2019-05-18T17:14:30.766Z,1.60
2019-05-18T17:17:03.055Z,1.83
2019-05-18T17:19:35.670Z,2.10
2019-05-18T17:22:07.968Z,1.80
2019-05-18T17:24:40.625Z,1.90
2019-05-18T17:27:12.899Z,2.40
2019-05-18T17:29:45.531Z,2.40
2019-05-18T17:32:18.835Z,2.03
2019-05-18T17:34:51.132Z,2.03
2019-05-18T17:37:23.877Z,1.90
2019-05-18T17:39:56.944Z,2.17
2019-05-18T17:42:29.688Z,1.70
2019-05-18T17:45:01.986Z,1.90
2019-05-18T17:47:35.078Z,2.13
2019-05-18T17:50:09.231Z,2.17
2019-05-18T17:52:42.093Z,2.40
2019-05-18T17:55:16.571Z,2.00
2019-05-18T17:57:48.970Z,2.10
2019-05-18T18:00:21.655Z,2.00
2019-05-18T18:02:54.403Z,1.80
2019-05-18T18:05:27.021Z,2.00
2019-05-18T18:07:59.757Z,2.40
2019-05-18T18:10:33.003Z,2.00
2019-05-18T18:13:05.412Z,2.00
2019-05-18T18:15:38.122Z,1.97
2019-05-18T18:18:11.199Z,2.10
2019-05-18T18:20:44.085Z,1.90
2019-05-18T18:23:17.267Z,1.77
2019-05-18T18:25:50.040Z,1.90
2019-05-18T18:28:22.923Z,2.10
2019-05-18T18:30:55.598Z,2.00
2019-05-18T18:33:28.324Z,2.13
2019-05-18T18:36:00.943Z,1.80
2019-05-18T18:38:33.686Z,2.00
2019-05-18T18:41:06.444Z,2.17
2019-05-18T18:43:39.251Z,2.10
2019-05-18T18:46:12.494Z,2.20
2019-05-18T18:48:44.790Z,2.20
2019-05-18T18:51:17.541Z,2.17
2019-05-18T18:53:49.835Z,2.00
2019-05-18T18:56:22.457Z,1.67
2019-05-18T18:58:54.920Z,2.00
2019-05-18T19:01:27.567Z,2.03
2019-05-18T19:03:59.868Z,1.93
2019-05-18T19:06:32.493Z,1.60
2019-05-18T19:09:07.044Z,1.53
2019-05-18T19:11:40.367Z,2.00
2019-05-18T19:14:13.043Z,2.07
2019-05-18T19:16:45.786Z,1.20
2019-05-18T19:19:18.540Z,1.13
2019-05-18T19:21:51.839Z,1.77
2019-05-18T19:24:24.139Z,1.87
2019-05-18T19:26:57.240Z,2.00
2019-05-18T19:29:30.280Z,2.00
2019-05-18T19:32:02.881Z,1.30
2019-05-18T19:34:36.077Z,1.63
2019-05-18T19:37:08.823Z,1.83
2019-05-18T19:39:41.123Z,1.40
2019-05-18T19:42:13.411Z,1.33
2019-05-18T19:44:45.700Z,1.60
2019-05-18T19:47:17.990Z,1.60
2019-05-18T19:49:50.734Z,1.60
2019-05-18T19:52:23.348Z,1.90
2019-05-18T19:54:55.637Z,1.53
2019-05-18T19:57:28.381Z,1.63
2019-05-18T20:00:01.456Z,1.93
2019-05-18T20:02:34.069Z,1.70
2019-05-18T20:05:08.901Z,1.80
2019-05-18T20:07:41.764Z,1.97
2019-05-18T20:10:15.016Z,2.50
2019-05-18T20:12:47.303Z,1.90
2019-05-18T20:15:20.253Z,2.27
2019-05-18T20:17:52.647Z,2.07
2019-05-18T20:20:25.137Z,1.97
2019-05-18T20:22:57.412Z,1.80
2019-05-18T20:25:30.657Z,1.93
2019-05-18T20:28:03.276Z,1.93
2019-05-18T20:30:36.020Z,2.60
2019-05-18T20:33:08.763Z,2.20
2019-05-18T20:35:42.406Z,2.20
2019-05-18T20:38:15.151Z,2.10
2019-05-18T20:40:47.436Z,2.10
2019-05-18T20:43:20.621Z,2.07
2019-05-18T20:45:53.268Z,2.03
2019-05-18T20:48:25.542Z,1.97
2019-05-18T20:50:58.289Z,2.20
2019-05-18T20:53:31.415Z,2.40
2019-05-18T20:56:04.559Z,1.90
2019-05-18T20:58:40.506Z,2.87
2019-05-18T21:01:12.553Z,2.77
2019-05-18T21:03:45.120Z,2.80
2019-05-18T21:06:17.404Z,3.07
2019-05-18T21:08:50.445Z,2.70
2019-05-18T21:11:23.073Z,2.87
2019-05-18T21:13:57.647Z,2.60
2019-05-18T21:16:29.885Z,3.00
2019-05-18T21:19:03.032Z,3.20
2019-05-18T21:21:36.263Z,2.97
2019-05-18T21:24:09.512Z,3.23
2019-05-18T21:26:41.933Z,3.43
2019-05-18T21:29:14.660Z,3.03
2019-05-18T21:31:46.953Z,3.10
2019-05-18T21:34:19.529Z,2.67
2019-05-18T21:36:52.296Z,2.70
2019-05-18T21:39:24.972Z,2.77
2019-05-18T21:41:57.714Z,2.80
2019-05-18T21:44:30.301Z,2.87
2019-05-18T21:47:03.381Z,3.27
2019-05-18T21:49:35.634Z,2.27
2019-05-18T21:52:08.266Z,2.57
2019-05-18T21:54:40.505Z,2.40
2019-05-18T21:57:13.248Z,2.40
2019-05-18T21:59:45.822Z,2.50
2019-05-18T22:02:18.675Z,2.60
2019-05-18T22:04:51.374Z,2.97
2019-05-18T22:07:23.996Z,3.40
2019-05-18T22:09:56.336Z,3.40
2019-05-18T22:12:28.609Z,2.97
2019-05-18T22:15:01.574Z,4.13
2019-05-18T22:17:36.738Z,2.63
2019-05-18T22:20:09.221Z,3.23
2019-05-18T22:22:42.194Z,2.80
2019-05-18T22:25:14.584Z,3.30
2019-05-18T22:27:46.966Z,3.10
2019-05-18T22:30:19.316Z,3.10
2019-05-18T22:32:51.569Z,3.40
2019-05-18T22:35:24.202Z,3.37
2019-05-18T22:37:56.823Z,2.73
2019-05-18T22:40:29.129Z,2.73
2019-05-18T22:43:02.208Z,3.10
2019-05-18T22:45:34.791Z,2.60
2019-05-18T22:48:07.655Z,3.03
2019-05-18T22:50:41.282Z,3.37
2019-05-18T22:53:13.615Z,2.77
2019-05-18T22:55:46.585Z,2.67
2019-05-18T22:58:19.322Z,3.27
2019-05-18T23:00:51.709Z,2.97
2019-05-18T23:03:24.661Z,2.87
2019-05-18T23:05:57.403Z,2.80
2019-05-18T23:08:30.803Z,3.20
2019-05-18T23:11:03.428Z,3.17
2019-05-18T23:13:36.060Z,3.40
2019-05-18T23:16:08.691Z,3.23
2019-05-18T23:18:54.492Z,2.97
2019-05-18T23:21:14.884Z,3.30
2019-05-18T23:23:47.721Z,2.77
2019-05-18T23:26:20.320Z,3.27
2019-05-18T23:28:52.651Z,3.13
2019-05-18T23:31:25.391Z,3.10
2019-05-18T23:33:58.137Z,2.93
2019-05-18T23:36:31.309Z,2.97
2019-05-18T23:39:05.064Z,3.23
2019-05-18T23:41:37.783Z,3.17
2019-05-18T23:44:10.080Z,3.00
2019-05-18T23:46:42.381Z,2.70
2019-05-18T23:49:15.102Z,2.83
2019-05-18T23:51:47.834Z,3.10
2019-05-18T23:54:20.124Z,3.60
2019-05-18T23:56:52.408Z,3.20
2019-05-18T23:59:24.701Z,2.90
